createdAt,value
2023-02-22T00:00:33.466Z,4.70
2023-02-22T00:04:34.488Z,4.30
2023-02-22T00:08:32.487Z,4.70
2023-02-22T00:12:30.441Z,4.70
2023-02-22T00:16:34.536Z,4.10
2023-02-22T00:20:32.459Z,4.50
2023-02-22T00:24:32.479Z,5.50
2023-02-22T00:28:31.429Z,5.50
2023-02-22T00:32:29.567Z,4.80
2023-02-22T00:36:28.460Z,5.80
2023-02-22T00:40:29.427Z,4.70
2023-02-22T00:44:27.413Z,4.80
2023-02-22T00:48:25.499Z,6.00
2023-02-22T00:52:23.465Z,4.80
2023-02-22T00:56:21.548Z,5.50
2023-02-22T01:00:21.361Z,6.20
2023-02-22T01:04:19.454Z,6.80
2023-02-22T01:08:18.450Z,6.40
2023-02-22T01:12:16.430Z,5.80
2023-02-22T01:16:15.467Z,6.80
2023-02-22T01:20:16.483Z,7.40
2023-02-22T01:24:14.461Z,6.30
2023-02-22T01:28:15.429Z,7.20
2023-02-22T01:32:14.426Z,6.70
2023-02-22T01:36:17.518Z,6.80
2023-02-22T01:40:15.312Z,7.10
2023-02-22T01:44:13.342Z,8.00
2023-02-22T01:48:22.333Z,6.10
2023-02-22T01:52:24.346Z,7.20
2023-02-22T01:56:23.444Z,7.00
2023-02-22T02:00:28.314Z,9.60
2023-02-22T02:04:35.346Z,7.70
2023-02-22T02:12:37.301Z,7.20
2023-02-22T02:16:37.394Z,8.10
2023-02-22T02:20:52.391Z,8.20
2023-02-22T02:25:27.277Z,7.70
2023-02-22T02:29:38.266Z,8.50
2023-02-22T02:33:53.287Z,7.30
2023-02-22T02:38:11.460Z,6.70
2023-02-22T02:42:11.498Z,6.60
2023-02-22T02:46:18.286Z,8.10
2023-02-22T02:50:20.302Z,6.50
2023-02-22T02:54:19.269Z,8.90
2023-02-22T02:58:22.279Z,8.60
2023-02-22T03:02:54.238Z,9.00
2023-02-22T03:07:17.291Z,7.50
2023-02-22T03:11:28.214Z,8.40
2023-02-22T03:15:44.212Z,7.00
2023-02-22T03:19:52.201Z,6.90
2023-02-22T03:23:58.170Z,6.20
2023-02-22T03:28:01.218Z,8.50
2023-02-22T03:32:08.349Z,8.90
2023-02-22T03:36:11.159Z,7.70
2023-02-22T03:40:14.321Z,7.80
2023-02-22T03:44:20.177Z,7.40
2023-02-22T03:48:25.243Z,9.10
2023-02-22T03:52:25.186Z,8.80
2023-02-22T03:56:26.166Z,9.30
2023-02-22T04:00:29.178Z,9.20
2023-02-22T04:04:28.186Z,9.00
2023-02-22T04:08:27.127Z,7.80
2023-02-22T04:12:26.166Z,7.90
2023-02-22T04:16:27.153Z,7.40
2023-02-22T04:20:26.145Z,8.70
2023-02-22T04:24:30.527Z,8.00
2023-02-22T04:28:28.134Z,7.00
2023-02-22T04:32:32.149Z,8.10
2023-02-22T04:36:30.128Z,7.30
2023-02-22T04:40:28.123Z,6.80
2023-02-22T04:44:27.109Z,7.30
2023-02-22T04:48:25.144Z,7.30
2023-02-22T04:52:23.190Z,7.50
2023-02-22T04:56:21.138Z,7.30
2023-02-22T05:00:21.341Z,8.30
2023-02-22T05:04:23.171Z,7.50
2023-02-22T05:08:21.247Z,8.10
2023-02-22T05:12:19.177Z,9.20
2023-02-22T05:16:17.082Z,7.90
2023-02-22T05:20:15.335Z,6.80
2023-02-22T05:24:13.134Z,7.40
2023-02-22T05:28:14.060Z,7.50
2023-02-22T05:32:12.295Z,7.10
2023-02-22T05:36:10.109Z,5.20
2023-02-22T05:40:08.088Z,5.70
2023-02-22T05:44:06.085Z,4.30
2023-02-22T05:48:04.048Z,4.60
2023-02-22T05:52:06.119Z,4.60
2023-02-22T05:56:05.119Z,3.90
2023-02-22T06:00:03.059Z,4.70
2023-02-22T06:04:05.069Z,4.20
2023-02-22T06:08:03.165Z,4.90
2023-02-22T06:12:01.002Z,4.40
2023-02-22T06:15:52.070Z,4.10
2023-02-22T06:19:49.962Z,3.70
2023-02-22T06:23:48.986Z,3.90
2023-02-22T06:27:46.971Z,4.30
2023-02-22T06:31:45.081Z,4.90
2023-02-22T06:35:44.084Z,4.40
2023-02-22T06:39:41.975Z,5.30
2023-02-22T06:43:39.978Z,3.60
2023-02-22T06:47:38.020Z,4.80
2023-02-22T06:51:36.005Z,6.20
2023-02-22T06:55:35.977Z,4.70
2023-02-22T06:59:34.973Z,3.90
2023-02-22T07:03:02.456Z,3.60
2023-02-22T07:06:26.657Z,4.80
2023-02-22T07:09:50.501Z,4.60
2023-02-22T07:13:15.584Z,4.80
2023-02-22T07:16:39.585Z,4.50
2023-02-22T07:20:03.838Z,4.20
2023-02-22T07:23:28.234Z,3.70
2023-02-22T07:26:52.439Z,4.30
2023-02-22T07:30:20.212Z,4.00
2023-02-22T07:33:44.289Z,4.80
2023-02-22T07:37:08.154Z,4.30
2023-02-22T07:40:31.997Z,4.50
2023-02-22T07:43:55.898Z,3.70
2023-02-22T07:47:20.772Z,3.70
2023-02-22T07:50:44.798Z,4.40
2023-02-22T07:54:09.195Z,3.50
2023-02-22T07:57:33.056Z,3.30
2023-02-22T08:00:57.450Z,3.90
2023-02-22T08:04:21.348Z,3.80
2023-02-22T08:07:45.370Z,2.90
2023-02-22T08:11:09.746Z,3.00
2023-02-22T08:14:33.664Z,2.70
2023-02-22T08:18:02.617Z,2.80
2023-02-22T08:21:26.480Z,3.00
2023-02-22T08:24:54.204Z,3.10
2023-02-22T08:28:21.809Z,3.00
2023-02-22T08:31:51.950Z,2.80
2023-02-22T08:35:17.920Z,2.70
2023-02-22T08:42:06.335Z,2.70
2023-02-22T08:45:30.587Z,2.80
2023-02-22T08:48:54.705Z,2.90
2023-02-22T08:52:18.636Z,2.90
2023-02-22T08:55:43.519Z,3.20
2023-02-22T08:59:07.417Z,3.00
2023-02-22T09:02:31.309Z,3.90
2023-02-22T09:05:55.384Z,3.40
2023-02-22T09:09:21.616Z,4.30
2023-02-22T09:12:45.787Z,3.60
2023-02-22T09:16:09.745Z,4.00
2023-02-22T09:19:33.855Z,3.90
2023-02-22T09:22:58.276Z,3.80
2023-02-22T09:26:23.683Z,4.10
2023-02-22T09:29:49.853Z,3.60
2023-02-22T09:33:17.192Z,3.30
2023-02-22T09:36:42.801Z,3.60
2023-02-22T09:40:09.958Z,6.70
2023-02-22T09:43:33.868Z,3.60
2023-02-22T09:46:59.848Z,4.20
2023-02-22T09:50:27.313Z,3.80
2023-02-22T09:53:52.403Z,3.70
2023-02-22T09:57:22.544Z,3.80
2023-02-22T10:00:51.607Z,3.30
2023-02-22T10:04:22.154Z,3.50
2023-02-22T10:07:55.309Z,4.40
2023-02-22T10:11:45.438Z,4.30
2023-02-22T10:15:23.155Z,3.90
2023-02-22T10:19:01.914Z,3.60
2023-02-22T10:22:46.727Z,3.50
2023-02-22T10:26:34.841Z,3.50
2023-02-22T10:30:23.832Z,3.80
2023-02-22T10:33:56.700Z,4.50
2023-02-22T10:37:23.507Z,3.80
2023-02-22T10:40:54.956Z,4.10
2023-02-22T10:44:19.035Z,4.00
2023-02-22T10:47:42.890Z,4.10
2023-02-22T10:51:09.203Z,4.10
2023-02-22T10:54:37.536Z,4.00
2023-02-22T10:58:06.172Z,4.30
2023-02-22T11:01:33.255Z,4.20
2023-02-22T11:05:00.667Z,3.90
2023-02-22T11:08:32.980Z,3.70
2023-02-22T11:12:12.796Z,4.40
2023-02-22T11:15:36.953Z,4.20
2023-02-22T11:19:03.220Z,4.00
2023-02-22T11:22:31.474Z,4.60
2023-02-22T11:26:05.385Z,4.80
2023-02-22T11:29:33.184Z,4.20
2023-02-22T11:33:23.636Z,4.10
2023-02-22T11:36:48.251Z,3.90
2023-02-22T11:40:22.347Z,3.90
2023-02-22T11:43:49.002Z,3.10
2023-02-22T11:47:13.815Z,3.30
2023-02-22T11:51:04.275Z,4.40
2023-02-22T11:54:47.056Z,4.00
2023-02-22T11:58:38.283Z,3.90
2023-02-22T12:02:33.264Z,4.00
2023-02-22T12:06:19.706Z,4.10
2023-02-22T12:13:46.050Z,4.30
2023-02-22T12:17:35.956Z,3.90
2023-02-22T12:21:03.302Z,4.20
2023-02-22T12:24:37.116Z,4.90
2023-02-22T12:28:25.030Z,4.90
2023-02-22T12:31:57.670Z,4.30
2023-02-22T12:35:26.295Z,3.90
2023-02-22T12:38:58.628Z,4.00
2023-02-22T12:42:31.644Z,3.60
2023-02-22T12:46:12.169Z,3.40
2023-02-22T12:49:50.448Z,3.60
2023-02-22T12:53:32.412Z,4.40
2023-02-22T12:57:18.320Z,3.50
2023-02-22T13:01:15.162Z,3.00
2023-02-22T13:04:39.317Z,2.90
2023-02-22T13:08:33.811Z,3.10
2023-02-22T13:12:09.575Z,3.10
2023-02-22T13:15:58.569Z,3.10
2023-02-22T13:19:37.800Z,3.40
2023-02-22T13:23:24.146Z,2.70
2023-02-22T13:26:56.164Z,3.50
2023-02-22T13:30:32.797Z,3.10
2023-02-22T13:34:34.404Z,3.00
2023-02-22T13:38:36.018Z,2.90
2023-02-22T13:42:22.557Z,3.20
2023-02-22T13:46:01.136Z,2.50
2023-02-22T13:49:49.263Z,3.00
2023-02-22T13:53:18.199Z,3.70
2023-02-22T13:56:47.484Z,3.20
2023-02-22T14:00:18.339Z,3.70
2023-02-22T14:03:42.462Z,3.40
2023-02-22T14:07:26.530Z,3.90
2023-02-22T14:10:52.246Z,3.50
2023-02-22T14:14:18.435Z,3.70
2023-02-22T14:21:12.585Z,3.80
2023-02-22T14:24:43.748Z,3.30
2023-02-22T14:28:31.325Z,3.50
2023-02-22T14:32:21.441Z,3.30
2023-02-22T14:36:21.315Z,3.80
2023-02-22T14:40:39.339Z,3.30
2023-02-22T14:44:46.334Z,3.20
2023-02-22T14:52:46.389Z,3.20
2023-02-22T14:57:05.306Z,3.70
2023-02-22T15:01:06.347Z,3.50
2023-02-22T15:05:11.344Z,3.50
2023-02-22T15:09:32.901Z,6.10
2023-02-22T15:13:39.420Z,5.50
2023-02-22T15:17:39.326Z,5.80
2023-02-22T15:21:48.369Z,8.00
2023-02-22T15:25:48.265Z,10.30
2023-02-22T15:29:55.274Z,10.50
2023-02-22T15:33:55.595Z,10.10
2023-02-22T15:37:53.290Z,11.30
2023-02-22T15:41:51.227Z,12.00
2023-02-22T15:45:49.318Z,11.10
2023-02-22T15:49:47.229Z,11.20
2023-02-22T15:53:56.185Z,10.70
2023-02-22T15:57:54.262Z,11.10
2023-02-22T16:01:57.279Z,11.40
2023-02-22T16:06:07.280Z,13.40
2023-02-22T16:10:06.416Z,12.00
2023-02-22T16:14:11.474Z,12.20
2023-02-22T16:18:09.345Z,12.00
2023-02-22T16:22:10.482Z,13.20
2023-02-22T16:26:42.409Z,17.80
2023-02-22T16:30:43.255Z,16.40
2023-02-22T16:34:41.226Z,15.70
2023-02-22T16:38:39.143Z,15.80
2023-02-22T16:42:37.189Z,17.40
2023-02-22T16:46:35.161Z,15.10
2023-02-22T16:50:35.203Z,12.80
2023-02-22T16:54:59.186Z,15.40
2023-02-22T16:58:59.147Z,14.20
2023-02-22T17:02:57.188Z,15.60
2023-02-22T17:06:55.273Z,15.40
2023-02-22T17:10:53.116Z,16.60
2023-02-22T17:14:51.328Z,15.80
2023-02-22T17:18:49.106Z,13.30
2023-02-22T17:22:47.928Z,10.70
2023-02-22T17:26:46.066Z,11.90
2023-02-22T17:30:44.219Z,12.70
2023-02-22T17:34:42.083Z,11.90
2023-02-22T17:38:41.108Z,11.70
2023-02-22T17:42:39.030Z,13.40
2023-02-22T17:46:37.161Z,12.70
2023-02-22T17:50:38.132Z,12.60
2023-02-22T17:54:36.138Z,12.10
2023-02-22T17:58:30.995Z,11.60
2023-02-22T18:02:29.082Z,11.10
2023-02-22T18:06:34.105Z,10.90
2023-02-22T18:10:33.034Z,11.50
2023-02-22T18:14:31.056Z,11.80
2023-02-22T18:18:30.118Z,13.20
2023-02-22T18:22:28.057Z,12.70
2023-02-22T18:26:32.084Z,14.30
2023-02-22T18:30:31.050Z,13.40
2023-02-22T18:34:31.958Z,11.70
2023-02-22T18:38:31.106Z,9.40
2023-02-22T18:42:30.004Z,11.00
2023-02-22T18:46:33.003Z,12.50
2023-02-22T18:50:31.083Z,12.20
2023-02-22T18:54:29.932Z,12.80
2023-02-22T18:58:28.073Z,12.20
2023-02-22T19:02:32.950Z,14.50
2023-02-22T19:06:32.001Z,16.30
2023-02-22T19:10:29.990Z,15.30
2023-02-22T19:14:28.002Z,16.40
2023-02-22T19:18:27.005Z,17.30
2023-02-22T19:22:25.964Z,14.90
2023-02-22T19:26:24.914Z,13.40
2023-02-22T19:30:24.010Z,13.60
2023-02-22T19:34:23.946Z,15.20
2023-02-22T19:38:21.906Z,13.60
2023-02-22T19:42:19.959Z,13.50
2023-02-22T19:46:24.917Z,12.80
2023-02-22T19:50:22.901Z,14.20
2023-02-22T19:54:30.192Z,15.60
2023-02-22T19:58:27.951Z,13.60
2023-02-22T20:02:30.035Z,12.40
2023-02-22T20:06:27.855Z,12.00
2023-02-22T20:10:25.983Z,11.60
2023-02-22T20:14:24.927Z,13.20
2023-02-22T20:18:22.926Z,12.40
2023-02-22T20:22:20.873Z,13.60
2023-02-22T20:26:18.862Z,13.40
2023-02-22T20:30:17.862Z,10.80
2023-02-22T20:34:15.852Z,10.80
2023-02-22T20:38:13.772Z,10.60
2023-02-22T20:42:13.910Z,10.90
2023-02-22T20:46:14.866Z,11.10
2023-02-22T20:50:13.866Z,11.60
2023-02-22T20:54:12.880Z,13.30
2023-02-22T20:58:10.848Z,12.90
2023-02-22T21:02:08.932Z,12.70
2023-02-22T21:06:07.799Z,13.10
2023-02-22T21:10:05.747Z,11.00
2023-02-22T21:14:03.887Z,10.90
2023-02-22T21:18:01.764Z,12.40
2023-02-22T21:22:01.982Z,12.20
2023-02-22T21:26:08.748Z,12.70
2023-02-22T21:34:06.739Z,13.80
2023-02-22T21:38:05.793Z,14.10
2023-02-22T21:42:06.740Z,13.70
2023-02-22T21:46:04.764Z,13.60
2023-02-22T21:50:02.711Z,14.20
2023-02-22T21:54:02.836Z,14.80
2023-02-22T21:58:00.707Z,14.20
2023-02-22T22:02:01.761Z,16.10
2023-02-22T22:05:59.733Z,15.70
2023-02-22T22:10:02.741Z,13.10
2023-02-22T22:14:00.764Z,15.40
2023-02-22T22:17:59.809Z,17.10
2023-02-22T22:21:59.733Z,17.20
2023-02-22T22:25:57.699Z,17.50
2023-02-22T22:29:55.688Z,18.00
2023-02-22T22:33:56.739Z,19.10
2023-02-22T22:37:57.599Z,19.20
2023-02-22T22:41:56.700Z,19.60
2023-02-22T22:45:54.591Z,20.90
2023-02-22T22:49:53.619Z,19.80
2023-02-22T22:53:54.578Z,18.30
2023-02-22T22:57:56.680Z,18.20
2023-02-22T23:01:58.574Z,20.30
2023-02-22T23:05:56.648Z,19.30
2023-02-22T23:09:55.553Z,15.60
2023-02-22T23:13:53.576Z,16.30
2023-02-22T23:17:52.587Z,15.10
2023-02-22T23:21:50.655Z,17.00
2023-02-22T23:25:48.547Z,15.70
2023-02-22T23:29:46.993Z,15.60
2023-02-22T23:33:44.543Z,14.00
2023-02-22T23:37:42.580Z,14.70
2023-02-22T23:41:42.503Z,13.70
2023-02-22T23:45:45.552Z,14.20
2023-02-22T23:49:45.563Z,13.00
2023-02-22T23:53:44.517Z,12.40
2023-02-22T23:57:43.576Z,9.90
